createdAt,value
2022-10-07T00:01:01.258Z,102412.56
2022-10-07T00:03:29.229Z,102433.59
2022-10-07T00:06:05.877Z,102423.63
2022-10-07T00:08:35.654Z,102431.31
2022-10-07T00:11:09.375Z,102416.91
2022-10-07T00:13:41.667Z,102424.59
2022-10-07T00:16:11.588Z,102421.81
2022-10-07T00:18:40.073Z,102420.78
2022-10-07T00:21:09.905Z,102422.75
2022-10-07T00:23:37.069Z,102423.19
2022-10-07T00:26:07.039Z,102426.47
2022-10-07T00:28:35.736Z,102418.72
2022-10-07T00:31:05.825Z,102405.44
2022-10-07T00:33:35.445Z,102426.47
2022-10-07T00:36:15.825Z,102424.88
2022-10-07T00:38:43.548Z,102427.50
2022-10-07T00:41:18.817Z,102429.19
2022-10-07T00:43:47.085Z,102417.41
2022-10-07T00:46:23.333Z,102424.38
2022-10-07T00:48:50.882Z,102427.69
2022-10-07T00:51:18.810Z,102412.22
2022-10-07T00:53:49.710Z,102422.06
2022-10-07T00:56:17.986Z,102383.00
2022-10-07T00:58:47.870Z,102384.50
2022-10-07T01:01:15.635Z,102421.69
2022-10-07T01:03:43.471Z,102400.88
2022-10-07T01:06:10.634Z,102396.03
2022-10-07T01:08:40.500Z,102408.41
2022-10-07T01:11:29.257Z,102430.34
2022-10-07T01:14:03.749Z,102425.59
2022-10-07T01:16:42.972Z,102422.41
2022-10-07T01:19:47.621Z,102424.00
2022-10-07T01:22:39.265Z,102419.44
2022-10-07T01:25:18.437Z,102426.41
2022-10-07T01:27:53.317Z,102420.00
2022-10-07T01:30:20.916Z,102413.72
2022-10-07T01:32:59.369Z,102414.44
2022-10-07T01:35:35.311Z,102423.69
2022-10-07T01:38:07.263Z,102428.59
2022-10-07T01:40:43.713Z,102396.44
2022-10-07T01:43:15.921Z,102427.88
2022-10-07T01:45:43.410Z,102401.44
2022-10-07T01:48:10.892Z,102421.03
2022-10-07T01:50:39.355Z,102436.00
2022-10-07T01:53:19.094Z,102427.09
2022-10-07T01:56:02.366Z,102437.06
2022-10-07T01:58:55.359Z,102428.88
2022-10-07T02:01:43.021Z,102442.53
2022-10-07T02:04:16.701Z,102438.88
2022-10-07T02:06:44.420Z,102439.31
2022-10-07T02:09:35.912Z,102402.00
2022-10-07T02:12:13.378Z,102388.00
2022-10-07T02:14:49.113Z,102429.75
2022-10-07T02:17:24.812Z,102450.91
2022-10-07T02:19:56.610Z,102454.63
2022-10-07T02:22:27.764Z,102451.00
2022-10-07T02:24:59.237Z,102416.94
2022-10-07T02:27:35.124Z,102459.25
2022-10-07T02:30:15.409Z,102455.88
2022-10-07T02:32:50.766Z,102468.16
2022-10-07T02:35:29.250Z,102460.75
2022-10-07T02:38:00.124Z,102452.75
2022-10-07T02:40:35.185Z,102419.94
2022-10-07T02:43:29.900Z,102416.53
2022-10-07T02:46:13.381Z,102455.38
2022-10-07T02:48:52.434Z,102457.28
2022-10-07T02:51:22.924Z,102451.97
2022-10-07T02:53:53.220Z,102464.69
2022-10-07T02:56:22.957Z,102463.19
2022-10-07T02:58:51.253Z,102410.53
2022-10-07T03:01:23.036Z,102441.00
2022-10-07T03:03:51.390Z,102421.56
2022-10-07T03:06:19.515Z,102473.31
2022-10-07T03:08:48.210Z,102456.63
2022-10-07T03:11:16.216Z,102474.63
2022-10-07T03:13:43.450Z,102450.09
2022-10-07T03:16:10.734Z,102466.25
2022-10-07T03:18:39.131Z,102436.66
2022-10-07T03:21:35.477Z,102444.72
2022-10-07T03:24:04.975Z,102438.41
2022-10-07T03:26:37.683Z,102455.69
2022-10-07T03:29:05.105Z,102467.97
2022-10-07T03:31:32.345Z,102471.72
2022-10-07T03:34:00.968Z,102449.22
2022-10-07T03:36:28.963Z,102476.81
2022-10-07T03:38:56.194Z,102471.28
2022-10-07T03:41:24.699Z,102463.50
2022-10-07T03:43:57.600Z,102458.03
2022-10-07T03:46:26.267Z,102415.09
2022-10-07T03:48:53.948Z,102419.38
2022-10-07T03:51:21.576Z,102469.97
2022-10-07T03:53:49.673Z,102481.97
2022-10-07T03:56:17.333Z,102460.44
2022-10-07T03:58:44.494Z,102482.28
2022-10-07T04:01:17.555Z,102485.13
2022-10-07T04:03:48.998Z,102466.56
2022-10-07T04:06:16.640Z,102469.06
2022-10-07T04:08:44.981Z,102458.00
2022-10-07T04:11:13.348Z,102461.25
2022-10-07T04:13:43.369Z,102485.19
2022-10-07T04:16:13.351Z,102438.97
2022-10-07T04:18:43.813Z,102486.31
2022-10-07T04:21:12.087Z,102475.31
2022-10-07T04:23:41.111Z,102485.13
2022-10-07T04:26:10.224Z,102494.38
2022-10-07T04:28:40.454Z,102484.03
2022-10-07T04:31:12.225Z,102509.13
2022-10-07T04:33:42.795Z,102518.19
2022-10-07T04:36:12.989Z,102486.91
2022-10-07T04:38:52.146Z,102502.84
2022-10-07T04:41:24.869Z,102512.91
2022-10-07T04:43:57.428Z,102504.72
2022-10-07T04:46:28.596Z,102514.47
2022-10-07T04:49:10.116Z,102521.75
2022-10-07T04:51:37.808Z,102518.53
2022-10-07T04:54:05.461Z,102533.56
2022-10-07T04:56:39.283Z,102512.22
2022-10-07T04:59:08.654Z,102525.47
2022-10-07T05:01:38.125Z,102477.47
2022-10-07T05:04:05.339Z,102526.44
2022-10-07T05:06:33.635Z,102529.78
2022-10-07T05:09:01.116Z,102519.88
2022-10-07T05:11:31.610Z,102532.63
2022-10-07T05:14:05.762Z,102525.22
2022-10-07T05:16:33.512Z,102522.16
2022-10-07T05:19:00.796Z,102518.19
2022-10-07T05:21:28.115Z,102524.03
2022-10-07T05:23:55.351Z,102493.63
2022-10-07T05:26:29.320Z,102531.97
2022-10-07T05:28:59.621Z,102536.59
2022-10-07T05:31:34.896Z,102542.88
2022-10-07T05:34:03.549Z,102535.41
2022-10-07T05:36:31.086Z,102549.16
2022-10-07T05:39:00.577Z,102552.44
2022-10-07T05:41:45.289Z,102557.16
2022-10-07T05:44:13.981Z,102544.09
2022-10-07T05:46:42.189Z,102553.63
2022-10-07T05:49:09.830Z,102552.66
2022-10-07T05:51:37.253Z,102558.53
2022-10-07T05:54:05.636Z,102553.94
2022-10-07T05:56:37.804Z,102537.72
2022-10-07T05:59:05.097Z,102572.22
2022-10-07T06:01:32.598Z,102569.34
2022-10-07T06:04:08.129Z,102573.41
2022-10-07T06:06:38.790Z,102573.47
2022-10-07T06:09:29.056Z,102580.03
2022-10-07T06:12:15.992Z,102580.94
2022-10-07T06:14:43.840Z,102561.53
2022-10-07T06:17:11.175Z,102588.50
2022-10-07T06:19:46.860Z,102584.22
2022-10-07T06:22:15.726Z,102587.28
2022-10-07T06:24:43.649Z,102587.03
2022-10-07T06:27:11.357Z,102596.38
2022-10-07T06:29:39.718Z,102596.97
2022-10-07T06:32:07.414Z,102581.47
2022-10-07T06:34:35.609Z,102592.44
2022-10-07T06:37:02.719Z,102582.19
2022-10-07T06:39:30.512Z,102589.94
2022-10-07T06:41:57.762Z,102571.50
2022-10-07T06:44:45.140Z,102600.25
2022-10-07T06:47:16.456Z,102586.28
2022-10-07T06:49:45.444Z,102594.03
2022-10-07T06:52:13.147Z,102596.16
2022-10-07T06:54:41.857Z,102602.75
2022-10-07T06:57:33.099Z,102599.72
2022-10-07T06:59:57.001Z,102597.47
2022-10-07T07:02:26.008Z,102597.84
2022-10-07T07:04:57.662Z,102596.78
2022-10-07T07:07:26.473Z,102586.03
2022-10-07T07:09:54.149Z,102596.69
2022-10-07T07:12:25.516Z,102577.31
2022-10-07T07:14:55.116Z,102558.53
2022-10-07T07:17:22.411Z,102592.25
2022-10-07T07:19:49.779Z,102591.03
2022-10-07T07:22:17.786Z,102586.09
2022-10-07T07:24:45.186Z,102576.47
2022-10-07T07:27:15.358Z,102564.25
2022-10-07T07:29:43.890Z,102587.16
2022-10-07T07:32:12.080Z,102589.91
2022-10-07T07:34:42.499Z,102576.97
2022-10-07T07:37:13.906Z,102534.50
2022-10-07T07:39:45.858Z,102575.25
2022-10-07T07:42:15.860Z,102569.91
2022-10-07T07:44:43.784Z,102548.38
2022-10-07T07:47:16.542Z,102570.63
2022-10-07T07:49:44.915Z,102572.22
2022-10-07T07:52:17.348Z,102573.56
2022-10-07T07:54:51.981Z,102560.53
2022-10-07T07:57:19.708Z,102532.44
2022-10-07T07:59:47.063Z,102567.59
2022-10-07T08:02:16.399Z,102583.94
2022-10-07T08:04:47.729Z,102579.91
2022-10-07T08:07:16.176Z,102578.09
2022-10-07T08:09:46.010Z,102584.34
2022-10-07T08:12:14.672Z,102550.84
2022-10-07T08:14:43.367Z,102565.88
2022-10-07T08:17:12.283Z,102566.88
2022-10-07T08:19:39.420Z,102553.66
2022-10-07T08:22:07.295Z,102574.59
2022-10-07T08:24:35.729Z,102565.34
2022-10-07T08:27:02.993Z,102552.16
2022-10-07T08:29:30.421Z,102557.78
2022-10-07T08:31:57.524Z,102563.31
2022-10-07T08:34:24.621Z,102570.53
2022-10-07T08:36:52.383Z,102568.66
2022-10-07T08:39:19.602Z,102545.97
2022-10-07T08:41:56.085Z,102554.59
2022-10-07T08:44:28.495Z,102551.13
2022-10-07T08:47:26.683Z,102553.81
2022-10-07T08:50:04.328Z,102549.19
2022-10-07T08:52:39.360Z,102549.50
2022-10-07T08:55:22.211Z,102553.66
2022-10-07T08:58:04.508Z,102540.41
2022-10-07T09:00:52.052Z,102527.13
2022-10-07T09:03:35.925Z,102538.50
2022-10-07T09:06:11.504Z,102526.81
2022-10-07T09:08:43.813Z,102518.53
2022-10-07T09:11:17.099Z,102517.22
2022-10-07T09:13:59.882Z,102519.09
2022-10-07T09:16:35.393Z,102491.88
2022-10-07T09:19:04.213Z,102484.63
2022-10-07T09:21:45.157Z,102516.66
2022-10-07T09:24:24.638Z,102507.53
2022-10-07T09:26:55.353Z,102509.50
2022-10-07T09:29:25.175Z,102509.06
2022-10-07T09:31:53.724Z,102489.72
2022-10-07T09:34:25.027Z,102497.81
2022-10-07T09:37:13.107Z,102486.31
2022-10-07T09:39:41.622Z,102473.56
2022-10-07T09:42:31.337Z,102477.94
2022-10-07T09:45:02.256Z,102455.16
2022-10-07T09:47:40.491Z,102471.56
2022-10-07T09:50:30.407Z,102477.84
2022-10-07T09:52:57.514Z,102471.97
2022-10-07T09:55:40.675Z,102471.28
2022-10-07T09:58:21.378Z,102475.22
2022-10-07T10:00:51.542Z,102477.00
2022-10-07T10:03:19.735Z,102467.25
2022-10-07T10:05:57.949Z,102468.72
2022-10-07T10:08:34.251Z,102467.56
2022-10-07T10:11:26.093Z,102444.09
2022-10-07T10:13:53.161Z,102450.41
2022-10-07T10:16:34.526Z,102447.06
2022-10-07T10:19:20.734Z,102453.88
2022-10-07T10:21:52.709Z,102448.72
2022-10-07T10:24:39.926Z,102423.91
2022-10-07T10:27:30.789Z,102441.13
2022-10-07T10:30:05.675Z,102440.00
2022-10-07T10:32:51.438Z,102433.00
2022-10-07T10:35:23.970Z,102426.25
2022-10-07T10:38:16.141Z,102429.00
2022-10-07T10:41:08.993Z,102406.09
2022-10-07T10:44:08.321Z,102419.34
2022-10-07T10:46:39.525Z,102403.28
2022-10-07T10:49:09.506Z,102397.53
2022-10-07T10:51:45.404Z,102394.00
2022-10-07T10:54:54.648Z,102391.69
2022-10-07T10:57:38.320Z,102391.59
2022-10-07T11:00:05.518Z,102388.47
2022-10-07T11:02:38.736Z,102381.41
2022-10-07T11:05:25.719Z,102380.41
2022-10-07T11:08:04.947Z,102373.84
2022-10-07T11:10:36.403Z,102365.63
2022-10-07T11:13:27.443Z,102365.00
2022-10-07T11:16:01.931Z,102362.31
2022-10-07T11:18:33.064Z,102355.72
2022-10-07T11:21:01.630Z,102353.34
2022-10-07T11:23:41.753Z,102343.41
2022-10-07T11:26:25.384Z,102337.94
2022-10-07T11:28:54.604Z,102330.84
2022-10-07T11:31:33.982Z,102328.50
2022-10-07T11:34:14.155Z,102322.13
2022-10-07T11:36:52.826Z,102331.81
2022-10-07T11:39:21.677Z,102316.66
2022-10-07T11:42:07.505Z,102309.09
2022-10-07T11:44:45.107Z,102270.06
2022-10-07T11:47:17.876Z,102275.09
2022-10-07T11:49:55.814Z,102286.06
2022-10-07T11:52:28.028Z,102289.75
2022-10-07T11:55:05.105Z,102283.72
2022-10-07T11:57:36.274Z,102284.78
2022-10-07T12:00:08.225Z,102283.22
2022-10-07T12:02:46.589Z,102272.63
2022-10-07T12:05:33.194Z,102278.19
2022-10-07T12:08:33.808Z,102267.38
2022-10-07T12:11:13.254Z,102270.28
2022-10-07T12:13:51.758Z,102254.19
2022-10-07T12:16:31.497Z,102267.38
2022-10-07T12:19:07.664Z,102268.69
2022-10-07T12:22:05.875Z,102271.88
2022-10-07T12:24:36.122Z,102263.16
2022-10-07T12:27:08.457Z,102265.25
2022-10-07T12:30:02.717Z,102228.06
2022-10-07T12:32:47.531Z,102257.63
2022-10-07T12:35:30.245Z,102248.16
2022-10-07T12:38:23.715Z,102243.09
2022-10-07T12:41:01.177Z,102247.56
2022-10-07T12:43:45.282Z,102242.81
2022-10-07T12:46:17.005Z,102241.50
2022-10-07T12:49:21.879Z,102235.44
2022-10-07T12:51:52.814Z,102230.38
2022-10-07T12:54:28.878Z,102205.31
2022-10-07T12:56:56.093Z,102233.34
2022-10-07T12:59:57.016Z,102225.16
2022-10-07T13:02:45.734Z,102223.28
2022-10-07T13:05:28.059Z,102217.50
2022-10-07T13:08:13.556Z,102213.25
2022-10-07T13:10:46.698Z,102203.75
2022-10-07T13:13:25.157Z,102193.97
2022-10-07T13:16:21.924Z,102196.63
2022-10-07T13:18:59.599Z,102188.47
2022-10-07T13:21:49.479Z,102196.34
2022-10-07T13:24:23.365Z,102185.28
2022-10-07T13:26:50.729Z,102197.38
2022-10-07T13:29:27.896Z,102196.84
2022-10-07T13:32:17.577Z,102188.13
2022-10-07T13:34:47.805Z,102187.63
2022-10-07T13:37:36.404Z,102186.81
2022-10-07T13:40:19.591Z,102191.31
2022-10-07T13:42:54.208Z,102181.28
2022-10-07T13:45:21.573Z,102178.66
2022-10-07T13:47:49.394Z,102169.19
2022-10-07T13:50:21.348Z,102174.50
2022-10-07T13:52:50.319Z,102165.78
2022-10-07T13:55:26.510Z,102156.03
2022-10-07T13:57:57.445Z,102148.09
2022-10-07T14:00:26.020Z,102148.38
2022-10-07T14:02:53.653Z,102152.81
2022-10-07T14:05:23.950Z,102137.78
2022-10-07T14:07:59.532Z,102145.38
2022-10-07T14:10:29.629Z,102134.81
2022-10-07T14:13:03.425Z,102142.78
2022-10-07T14:15:34.067Z,102133.88
2022-10-07T14:18:10.679Z,102142.34
2022-10-07T14:20:41.330Z,102139.69
2022-10-07T14:23:31.346Z,102132.56
2022-10-07T14:26:01.086Z,102132.56
2022-10-07T14:28:31.377Z,102133.09
2022-10-07T14:31:23.244Z,102145.50
2022-10-07T14:34:30.418Z,102139.44
2022-10-07T14:37:11.241Z,102135.22
2022-10-07T14:39:49.777Z,102132.06
2022-10-07T14:42:28.692Z,102138.13
2022-10-07T14:44:57.674Z,102119.94
2022-10-07T14:47:28.434Z,102107.56
2022-10-07T14:49:57.364Z,102132.31
2022-10-07T14:52:58.254Z,102132.06
2022-10-07T14:55:28.093Z,102134.44
2022-10-07T14:57:55.399Z,102116.00
2022-10-07T15:00:25.024Z,102115.72
2022-10-07T15:02:53.347Z,102126.81
2022-10-07T15:05:22.766Z,102125.22
2022-10-07T15:07:50.883Z,102127.88
2022-10-07T15:10:27.822Z,102115.19
2022-10-07T15:12:56.226Z,102122.59
2022-10-07T15:15:23.451Z,102127.59
2022-10-07T15:17:50.562Z,102118.63
2022-10-07T15:20:18.013Z,102104.91
2022-10-07T15:22:45.877Z,102123.63
2022-10-07T15:25:15.443Z,102121.25
2022-10-07T15:27:42.971Z,102128.13
2022-10-07T15:30:10.959Z,102104.38
2022-10-07T15:32:38.050Z,102107.03
2022-10-07T15:35:05.608Z,102115.72
2022-10-07T15:37:33.630Z,102120.97
2022-10-07T15:40:00.934Z,102117.53
2022-10-07T15:42:28.032Z,102114.63
2022-10-07T15:44:55.124Z,102113.00
2022-10-07T15:47:22.400Z,102119.34
2022-10-07T15:49:49.694Z,102123.00
2022-10-07T15:52:17.054Z,102111.94
2022-10-07T15:54:46.436Z,102077.38
2022-10-07T15:57:14.540Z,102124.81
2022-10-07T15:59:42.392Z,102121.38
2022-10-07T16:02:18.200Z,102118.47
2022-10-07T16:04:47.331Z,102122.06
2022-10-07T16:07:16.152Z,102109.41
2022-10-07T16:09:43.591Z,102107.78
2022-10-07T16:12:10.787Z,102118.38
2022-10-07T16:14:39.012Z,102121.75
2022-10-07T16:17:06.184Z,102105.97
2022-10-07T16:19:33.264Z,102108.84
2022-10-07T16:22:00.777Z,102118.84
2022-10-07T16:24:32.505Z,102110.63
2022-10-07T16:27:02.090Z,102087.91
2022-10-07T16:29:47.566Z,102125.88
2022-10-07T16:32:14.826Z,102108.41
2022-10-07T16:34:44.079Z,102124.50
2022-10-07T16:37:13.262Z,102123.66
2022-10-07T16:39:40.469Z,102126.53
2022-10-07T16:42:07.771Z,102138.31
2022-10-07T16:44:35.497Z,102126.16
2022-10-07T16:47:03.301Z,102142.94
2022-10-07T16:49:30.711Z,102140.78
2022-10-07T16:51:58.213Z,102141.00
2022-10-07T16:54:26.177Z,102129.84
2022-10-07T16:56:53.655Z,102138.75
2022-10-07T16:59:23.919Z,102135.81
2022-10-07T17:01:55.029Z,102132.53
2022-10-07T17:04:22.388Z,102145.91
2022-10-07T17:06:49.972Z,102139.00
2022-10-07T17:09:18.517Z,102152.31
2022-10-07T17:11:46.479Z,102144.91
2022-10-07T17:14:16.993Z,102109.63
2022-10-07T17:16:50.038Z,102125.16
2022-10-07T17:19:19.428Z,102146.44
2022-10-07T17:21:48.292Z,102144.00
2022-10-07T17:24:17.637Z,102153.41
2022-10-07T17:26:45.803Z,102147.47
2022-10-07T17:29:16.592Z,102126.97
2022-10-07T17:31:47.217Z,102152.59
2022-10-07T17:34:16.258Z,102152.53
2022-10-07T17:36:47.963Z,102133.63
2022-10-07T17:39:16.117Z,102161.84
2022-10-07T17:41:43.337Z,102148.63
2022-10-07T17:44:12.587Z,102151.50
2022-10-07T17:46:41.012Z,102151.94
2022-10-07T17:49:11.651Z,102156.00
2022-10-07T17:51:39.555Z,102146.19
2022-10-07T17:54:06.719Z,102146.69
2022-10-07T17:56:34.941Z,102081.31
2022-10-07T17:59:03.208Z,102119.25
2022-10-07T18:01:34.042Z,102114.31
2022-10-07T18:04:03.802Z,102158.88
2022-10-07T18:06:33.915Z,102112.53
2022-10-07T18:09:04.911Z,102163.97
2022-10-07T18:11:51.302Z,102153.44
2022-10-07T18:14:37.666Z,102162.22
2022-10-07T18:17:06.191Z,102157.03
2022-10-07T18:19:33.850Z,102105.56
2022-10-07T18:22:03.197Z,102088.25
2022-10-07T18:24:37.914Z,102129.56
2022-10-07T18:27:05.089Z,102162.94
2022-10-07T18:29:34.448Z,102147.75
2022-10-07T18:32:05.705Z,102098.41
2022-10-07T18:34:33.229Z,102139.59
2022-10-07T18:37:00.672Z,102151.13
2022-10-07T18:39:29.628Z,102152.94
2022-10-07T18:41:57.369Z,102130.16
2022-10-07T18:44:24.892Z,102118.66
2022-10-07T18:46:52.421Z,102145.50
2022-10-07T18:49:19.616Z,102140.38
2022-10-07T18:51:47.339Z,102143.25
2022-10-07T18:54:14.664Z,102138.41
2022-10-07T18:56:41.912Z,102112.63
2022-10-07T18:59:13.275Z,102151.41
2022-10-07T19:01:41.094Z,102102.25
2022-10-07T19:04:09.508Z,102155.56
2022-10-07T19:06:39.539Z,102160.69
2022-10-07T19:09:21.520Z,102159.16
2022-10-07T19:11:49.437Z,102152.59
2022-10-07T19:14:16.959Z,102159.34
2022-10-07T19:16:46.199Z,102148.38
2022-10-07T19:19:17.316Z,102145.00
2022-10-07T19:21:46.408Z,102162.88
2022-10-07T19:24:14.989Z,102133.00
2022-10-07T19:26:44.708Z,102123.47
2022-10-07T19:29:13.377Z,102158.78
2022-10-07T19:31:46.010Z,102146.03
2022-10-07T19:34:20.896Z,102155.66
2022-10-07T19:36:50.054Z,102158.66
2022-10-07T19:39:22.417Z,102149.84
2022-10-07T19:41:51.269Z,102157.09
2022-10-07T19:44:19.272Z,102149.72
2022-10-07T19:46:50.328Z,102162.09
2022-10-07T19:49:17.452Z,102139.44
2022-10-07T19:51:45.603Z,102143.28
2022-10-07T19:54:13.199Z,102122.78
2022-10-07T19:56:41.031Z,102159.97
2022-10-07T19:59:10.676Z,102165.13
2022-10-07T20:01:41.526Z,102156.50
2022-10-07T20:04:19.004Z,102113.94
2022-10-07T20:06:46.319Z,102167.09
2022-10-07T20:09:16.547Z,102124.44
2022-10-07T20:11:44.435Z,102161.72
2022-10-07T20:14:11.936Z,102164.94
2022-10-07T20:16:39.588Z,102122.84
2022-10-07T20:19:11.633Z,102167.47
2022-10-07T20:21:39.444Z,102141.66
2022-10-07T20:24:08.636Z,102110.13
2022-10-07T20:26:38.751Z,102164.41
2022-10-07T20:29:10.129Z,102158.22
2022-10-07T20:31:41.410Z,102106.59
2022-10-07T20:34:14.371Z,102155.03
2022-10-07T20:36:42.112Z,102138.63
2022-10-07T20:39:34.672Z,102155.03
2022-10-07T20:42:20.784Z,102163.66
2022-10-07T20:44:51.956Z,102118.69
2022-10-07T20:47:20.430Z,102109.91
2022-10-07T20:49:48.984Z,102150.91
2022-10-07T20:52:21.656Z,102141.50
2022-10-07T20:54:49.538Z,102111.53
2022-10-07T20:57:22.418Z,102159.16
2022-10-07T20:59:50.528Z,102152.50
2022-10-07T21:02:20.389Z,102158.22
2022-10-07T21:04:48.201Z,102151.19
2022-10-07T21:07:16.396Z,102112.94
2022-10-07T21:09:43.895Z,102162.34
2022-10-07T21:12:13.908Z,102153.31
2022-10-07T21:14:43.181Z,102150.44
2022-10-07T21:17:11.640Z,102152.19
2022-10-07T21:19:39.258Z,102136.84
2022-10-07T21:22:07.288Z,102140.69
2022-10-07T21:24:34.937Z,102148.34
2022-10-07T21:27:04.278Z,102157.44
2022-10-07T21:29:31.554Z,102159.16
2022-10-07T21:32:00.175Z,102149.00
2022-10-07T21:34:29.899Z,102150.56
2022-10-07T21:36:57.793Z,102145.13
2022-10-07T21:39:26.334Z,102150.03
2022-10-07T21:41:53.764Z,102147.97
2022-10-07T21:44:21.296Z,102161.47
2022-10-07T21:46:48.497Z,102147.88
2022-10-07T21:49:16.738Z,102109.59
2022-10-07T21:51:44.443Z,102142.78
2022-10-07T21:54:16.420Z,102144.22
2022-10-07T21:56:46.223Z,102152.22
2022-10-07T21:59:14.179Z,102146.66
2022-10-07T22:01:42.646Z,102136.91
2022-10-07T22:04:16.464Z,102135.81
2022-10-07T22:07:03.008Z,102138.94
2022-10-07T22:09:31.254Z,102143.94
2022-10-07T22:11:58.580Z,102117.69
2022-10-07T22:14:25.996Z,102127.19
2022-10-07T22:16:53.072Z,102142.22
2022-10-07T22:19:20.137Z,102142.72
2022-10-07T22:21:47.304Z,102124.22
2022-10-07T22:24:15.036Z,102099.06
2022-10-07T22:26:46.315Z,102127.75
2022-10-07T22:29:16.165Z,102126.84
2022-10-07T22:31:43.992Z,102115.34
2022-10-07T22:34:32.008Z,102115.97
2022-10-07T22:36:59.337Z,102107.72
2022-10-07T22:39:28.747Z,102088.47
2022-10-07T22:41:56.897Z,102100.88
2022-10-07T22:44:28.214Z,102101.66
2022-10-07T22:46:56.499Z,102100.72
2022-10-07T22:49:27.302Z,102076.19
2022-10-07T22:51:56.677Z,102092.09
2022-10-07T22:54:23.905Z,102095.28
2022-10-07T22:56:50.974Z,102093.38
2022-10-07T22:59:18.272Z,102092.44
2022-10-07T23:01:45.365Z,102051.88
2022-10-07T23:04:12.599Z,102089.63
2022-10-07T23:06:39.725Z,102083.38
2022-10-07T23:09:06.959Z,102092.00
2022-10-07T23:11:34.103Z,102090.03
2022-10-07T23:14:01.320Z,102073.53
2022-10-07T23:16:30.368Z,102086.41
2022-10-07T23:18:58.780Z,102071.00
2022-10-07T23:21:29.457Z,102088.94
2022-10-07T23:24:04.640Z,102092.00
2022-10-07T23:26:34.288Z,102087.38
2022-10-07T23:29:03.079Z,102065.75
2022-10-07T23:31:32.399Z,102073.13
2022-10-07T23:34:01.252Z,102081.13
2022-10-07T23:36:28.642Z,102089.88
2022-10-07T23:38:56.087Z,102052.13
2022-10-07T23:41:25.903Z,102083.38
2022-10-07T23:43:55.121Z,102083.75
2022-10-07T23:46:24.773Z,102084.28
2022-10-07T23:48:52.418Z,102083.50
2022-10-07T23:51:23.613Z,102069.28
2022-10-07T23:53:51.034Z,102046.75
2022-10-07T23:56:20.788Z,102030.56
2022-10-07T23:58:47.966Z,102073.94
